sensor_id;sensor_type;location;lat;lon;timestamp;P1;durP1;ratioP1;P2;durP2;ratioP2
15258;SDS011;34462;51.368;12.364;2022-09-09T00:00:12;1.80;;;1.70;;
15258;SDS011;34462;51.368;12.364;2022-09-09T00:02:43;3.70;;;1.90;;
15258;SDS011;34462;51.368;12.364;2022-09-09T00:05:23;2.22;;;2.03;;
15258;SDS011;34462;51.368;12.364;2022-09-09T00:08:04;2.03;;;1.80;;
15258;SDS011;34462;51.368;12.364;2022-09-09T00:10:45;2.40;;;2.05;;
15258;SDS011;34462;51.368;12.364;2022-09-09T00:13:28;3.90;;;2.00;;
15258;SDS011;34462;51.368;12.364;2022-09-09T00:16:07;5.35;;;2.10;;
15258;SDS011;34462;51.368;12.364;2022-09-09T00:18:46;2.53;;;1.98;;
15258;SDS011;34462;51.368;12.364;2022-09-09T00:21:30;2.30;;;2.10;;
15258;SDS011;34462;51.368;12.364;2022-09-09T00:24:08;2.42;;;2.08;;
15258;SDS011;34462;51.368;12.364;2022-09-09T00:26:55;3.63;;;2.05;;
15258;SDS011;34462;51.368;12.364;2022-09-09T00:29:35;5.22;;;2.03;;
15258;SDS011;34462;51.368;12.364;2022-09-09T00:32:12;2.17;;;1.98;;
15258;SDS011;34462;51.368;12.364;2022-09-09T00:34:46;2.20;;;2.00;;
15258;SDS011;34462;51.368;12.364;2022-09-09T00:37:19;2.72;;;2.17;;
15258;SDS011;34462;51.368;12.364;2022-09-09T00:39:49;4.30;;;2.38;;
15258;SDS011;34462;51.368;12.364;2022-09-09T00:42:24;2.30;;;2.10;;
15258;SDS011;34462;51.368;12.364;2022-09-09T00:45:02;3.78;;;2.10;;
15258;SDS011;34462;51.368;12.364;2022-09-09T00:48:01;2.33;;;1.92;;
15258;SDS011;34462;51.368;12.364;2022-09-09T00:50:42;3.40;;;2.45;;
15258;SDS011;34462;51.368;12.364;2022-09-09T00:53:24;4.60;;;2.20;;
15258;SDS011;34462;51.368;12.364;2022-09-09T00:56:09;3.70;;;2.03;;
15258;SDS011;34462;51.368;12.364;2022-09-09T00:58:47;1.90;;;1.80;;
15258;SDS011;34462;51.368;12.364;2022-09-09T01:01:31;4.22;;;2.08;;
15258;SDS011;34462;51.368;12.364;2022-09-09T01:03:59;4.10;;;2.47;;
15258;SDS011;34462;51.368;12.364;2022-09-09T01:06:32;3.03;;;1.95;;
15258;SDS011;34462;51.368;12.364;2022-09-09T01:09:07;2.00;;;1.80;;
15258;SDS011;34462;51.368;12.364;2022-09-09T01:11:52;3.38;;;2.00;;
15258;SDS011;34462;51.368;12.364;2022-09-09T01:14:32;2.55;;;2.13;;
15258;SDS011;34462;51.368;12.364;2022-09-09T01:17:13;2.65;;;1.73;;
15258;SDS011;34462;51.368;12.364;2022-09-09T01:19:49;4.13;;;2.00;;
15258;SDS011;34462;51.368;12.364;2022-09-09T01:22:33;5.32;;;2.10;;
15258;SDS011;34462;51.368;12.364;2022-09-09T01:25:13;3.45;;;2.10;;
15258;SDS011;34462;51.368;12.364;2022-09-09T01:27:55;2.38;;;1.90;;
15258;SDS011;34462;51.368;12.364;2022-09-09T01:30:27;3.40;;;2.00;;
15258;SDS011;34462;51.368;12.364;2022-09-09T01:32:56;4.03;;;1.85;;
15258;SDS011;34462;51.368;12.364;2022-09-09T01:35:29;3.15;;;2.10;;
15258;SDS011;34462;51.368;12.364;2022-09-09T01:38:13;3.03;;;2.13;;
15258;SDS011;34462;51.368;12.364;2022-09-09T01:40:42;2.40;;;2.20;;
15258;SDS011;34462;51.368;12.364;2022-09-09T01:43:12;3.45;;;1.95;;
15258;SDS011;34462;51.368;12.364;2022-09-09T01:45:41;3.42;;;1.88;;
15258;SDS011;34462;51.368;12.364;2022-09-09T01:48:13;2.08;;;1.88;;
15258;SDS011;34462;51.368;12.364;2022-09-09T01:50:42;4.65;;;2.00;;
15258;SDS011;34462;51.368;12.364;2022-09-09T01:53:10;3.53;;;2.10;;
15258;SDS011;34462;51.368;12.364;2022-09-09T01:55:44;3.17;;;2.10;;
15258;SDS011;34462;51.368;12.364;2022-09-09T01:58:28;2.72;;;2.08;;
15258;SDS011;34462;51.368;12.364;2022-09-09T02:01:06;4.72;;;2.00;;
15258;SDS011;34462;51.368;12.364;2022-09-09T02:03:51;3.83;;;1.92;;
15258;SDS011;34462;51.368;12.364;2022-09-09T02:06:25;4.25;;;1.90;;
15258;SDS011;34462;51.368;12.364;2022-09-09T02:09:02;3.55;;;2.25;;
15258;SDS011;34462;51.368;12.364;2022-09-09T02:11:33;2.30;;;2.10;;
15258;SDS011;34462;51.368;12.364;2022-09-09T02:14:05;2.78;;;1.83;;
15258;SDS011;34462;51.368;12.364;2022-09-09T02:16:40;3.13;;;1.90;;
15258;SDS011;34462;51.368;12.364;2022-09-09T02:19:19;6.03;;;2.20;;
15258;SDS011;34462;51.368;12.364;2022-09-09T02:21:53;2.42;;;2.00;;
15258;SDS011;34462;51.368;12.364;2022-09-09T02:24:25;3.13;;;1.90;;
15258;SDS011;34462;51.368;12.364;2022-09-09T02:26:59;3.13;;;2.38;;
15258;SDS011;34462;51.368;12.364;2022-09-09T02:29:36;3.78;;;1.55;;
15258;SDS011;34462;51.368;12.364;2022-09-09T02:32:08;3.53;;;2.17;;
15258;SDS011;34462;51.368;12.364;2022-09-09T02:34:42;2.78;;;1.95;;
15258;SDS011;34462;51.368;12.364;2022-09-09T02:37:15;3.45;;;2.00;;
15258;SDS011;34462;51.368;12.364;2022-09-09T02:39:47;2.30;;;2.08;;
15258;SDS011;34462;51.368;12.364;2022-09-09T02:42:15;2.25;;;2.03;;
15258;SDS011;34462;51.368;12.364;2022-09-09T02:44:46;2.28;;;1.80;;
15258;SDS011;34462;51.368;12.364;2022-09-09T02:47:16;3.88;;;2.35;;
15258;SDS011;34462;51.368;12.364;2022-09-09T02:50:00;3.83;;;2.00;;
15258;SDS011;34462;51.368;12.364;2022-09-09T02:52:42;2.65;;;1.80;;
15258;SDS011;34462;51.368;12.364;2022-09-09T02:55:27;4.10;;;1.90;;
15258;SDS011;34462;51.368;12.364;2022-09-09T02:58:05;2.50;;;2.30;;
15258;SDS011;34462;51.368;12.364;2022-09-09T03:00:39;2.83;;;1.83;;
15258;SDS011;34462;51.368;12.364;2022-09-09T03:03:08;3.10;;;1.90;;
15258;SDS011;34462;51.368;12.364;2022-09-09T03:05:37;2.17;;;1.88;;
15258;SDS011;34462;51.368;12.364;2022-09-09T03:08:05;1.83;;;1.73;;
15258;SDS011;34462;51.368;12.364;2022-09-09T03:10:33;2.25;;;2.05;;
15258;SDS011;34462;51.368;12.364;2022-09-09T03:13:03;1.85;;;1.73;;
15258;SDS011;34462;51.368;12.364;2022-09-09T03:15:31;2.25;;;2.05;;
15258;SDS011;34462;51.368;12.364;2022-09-09T03:18:02;2.47;;;1.63;;
15258;SDS011;34462;51.368;12.364;2022-09-09T03:20:30;3.30;;;2.10;;
15258;SDS011;34462;51.368;12.364;2022-09-09T03:22:59;2.72;;;1.77;;
15258;SDS011;34462;51.368;12.364;2022-09-09T03:25:28;3.40;;;2.20;;
15258;SDS011;34462;51.368;12.364;2022-09-09T03:27:57;2.72;;;1.92;;
15258;SDS011;34462;51.368;12.364;2022-09-09T03:30:26;3.13;;;2.10;;
15258;SDS011;34462;51.368;12.364;2022-09-09T03:32:55;3.53;;;2.13;;
15258;SDS011;34462;51.368;12.364;2022-09-09T03:35:25;3.17;;;2.05;;
15258;SDS011;34462;51.368;12.364;2022-09-09T03:37:53;3.70;;;1.98;;
15258;SDS011;34462;51.368;12.364;2022-09-09T03:40:21;6.10;;;2.10;;
15258;SDS011;34462;51.368;12.364;2022-09-09T03:42:49;2.45;;;1.90;;
15258;SDS011;34462;51.368;12.364;2022-09-09T03:45:17;3.13;;;2.08;;
15258;SDS011;34462;51.368;12.364;2022-09-09T03:47:45;3.42;;;2.03;;
15258;SDS011;34462;51.368;12.364;2022-09-09T03:50:13;2.67;;;2.03;;
15258;SDS011;34462;51.368;12.364;2022-09-09T03:52:43;4.20;;;1.85;;
15258;SDS011;34462;51.368;12.364;2022-09-09T03:55:12;3.95;;;2.22;;
15258;SDS011;34462;51.368;12.364;2022-09-09T03:57:40;4.70;;;2.00;;
15258;SDS011;34462;51.368;12.364;2022-09-09T04:00:09;3.20;;;2.33;;
15258;SDS011;34462;51.368;12.364;2022-09-09T04:02:38;2.20;;;1.80;;
15258;SDS011;34462;51.368;12.364;2022-09-09T04:05:06;2.80;;;2.20;;
15258;SDS011;34462;51.368;12.364;2022-09-09T04:07:35;2.38;;;2.13;;
15258;SDS011;34462;51.368;12.364;2022-09-09T04:10:05;4.07;;;2.20;;
15258;SDS011;34462;51.368;12.364;2022-09-09T04:12:35;3.33;;;2.13;;
15258;SDS011;34462;51.368;12.364;2022-09-09T04:15:04;2.88;;;2.15;;
15258;SDS011;34462;51.368;12.364;2022-09-09T04:17:33;4.30;;;2.00;;
15258;SDS011;34462;51.368;12.364;2022-09-09T04:20:02;2.47;;;2.00;;
15258;SDS011;34462;51.368;12.364;2022-09-09T04:22:31;2.92;;;2.03;;
15258;SDS011;34462;51.368;12.364;2022-09-09T04:25:00;3.03;;;2.25;;
15258;SDS011;34462;51.368;12.364;2022-09-09T04:27:29;3.42;;;1.98;;
15258;SDS011;34462;51.368;12.364;2022-09-09T04:29:57;3.00;;;2.20;;
15258;SDS011;34462;51.368;12.364;2022-09-09T04:32:25;6.35;;;3.05;;
15258;SDS011;34462;51.368;12.364;2022-09-09T04:34:53;4.60;;;2.30;;
15258;SDS011;34462;51.368;12.364;2022-09-09T04:37:21;4.93;;;2.00;;
15258;SDS011;34462;51.368;12.364;2022-09-09T04:39:50;4.32;;;1.92;;
15258;SDS011;34462;51.368;12.364;2022-09-09T04:42:19;4.15;;;2.08;;
15258;SDS011;34462;51.368;12.364;2022-09-09T04:44:48;4.20;;;2.00;;
15258;SDS011;34462;51.368;12.364;2022-09-09T04:47:16;3.75;;;2.15;;
15258;SDS011;34462;51.368;12.364;2022-09-09T04:49:44;4.80;;;1.88;;
15258;SDS011;34462;51.368;12.364;2022-09-09T04:52:12;3.00;;;2.03;;
15258;SDS011;34462;51.368;12.364;2022-09-09T04:54:44;4.97;;;1.80;;
15258;SDS011;34462;51.368;12.364;2022-09-09T04:57:12;3.85;;;2.03;;
15258;SDS011;34462;51.368;12.364;2022-09-09T04:59:44;4.28;;;1.98;;
15258;SDS011;34462;51.368;12.364;2022-09-09T05:02:13;4.72;;;2.47;;
15258;SDS011;34462;51.368;12.364;2022-09-09T05:04:41;4.43;;;2.20;;
15258;SDS011;34462;51.368;12.364;2022-09-09T05:07:09;5.43;;;1.70;;
15258;SDS011;34462;51.368;12.364;2022-09-09T05:09:37;3.08;;;2.60;;
15258;SDS011;34462;51.368;12.364;2022-09-09T05:12:05;2.20;;;1.60;;
15258;SDS011;34462;51.368;12.364;2022-09-09T05:14:34;4.00;;;1.80;;
15258;SDS011;34462;51.368;12.364;2022-09-09T05:17:03;2.58;;;1.75;;
15258;SDS011;34462;51.368;12.364;2022-09-09T05:19:33;4.22;;;2.10;;
15258;SDS011;34462;51.368;12.364;2022-09-09T05:22:01;3.85;;;2.10;;
15258;SDS011;34462;51.368;12.364;2022-09-09T05:24:30;3.28;;;1.70;;
15258;SDS011;34462;51.368;12.364;2022-09-09T05:26:59;2.42;;;1.90;;
15258;SDS011;34462;51.368;12.364;2022-09-09T05:29:28;3.10;;;2.17;;
15258;SDS011;34462;51.368;12.364;2022-09-09T05:31:58;4.82;;;2.40;;
15258;SDS011;34462;51.368;12.364;2022-09-09T05:34:26;3.55;;;1.70;;
15258;SDS011;34462;51.368;12.364;2022-09-09T05:36:55;3.83;;;1.90;;
15258;SDS011;34462;51.368;12.364;2022-09-09T05:39:24;4.40;;;1.90;;
15258;SDS011;34462;51.368;12.364;2022-09-09T05:41:52;4.97;;;1.90;;
15258;SDS011;34462;51.368;12.364;2022-09-09T05:44:21;3.47;;;1.67;;
15258;SDS011;34462;51.368;12.364;2022-09-09T05:46:53;4.65;;;1.50;;
15258;SDS011;34462;51.368;12.364;2022-09-09T05:49:21;2.60;;;1.70;;
15258;SDS011;34462;51.368;12.364;2022-09-09T05:51:50;3.20;;;1.67;;
15258;SDS011;34462;51.368;12.364;2022-09-09T05:54:20;4.35;;;2.00;;
15258;SDS011;34462;51.368;12.364;2022-09-09T05:56:48;4.28;;;1.75;;
15258;SDS011;34462;51.368;12.364;2022-09-09T05:59:17;2.80;;;1.80;;
15258;SDS011;34462;51.368;12.364;2022-09-09T06:01:45;1.73;;;1.50;;
15258;SDS011;34462;51.368;12.364;2022-09-09T06:04:13;3.35;;;1.70;;
15258;SDS011;34462;51.368;12.364;2022-09-09T06:06:42;3.92;;;1.83;;
15258;SDS011;34462;51.368;12.364;2022-09-09T06:09:10;3.00;;;1.92;;
15258;SDS011;34462;51.368;12.364;2022-09-09T06:11:39;2.22;;;1.70;;
15258;SDS011;34462;51.368;12.364;2022-09-09T06:14:08;3.10;;;1.60;;
15258;SDS011;34462;51.368;12.364;2022-09-09T06:16:36;3.38;;;2.50;;
15258;SDS011;34462;51.368;12.364;2022-09-09T06:19:04;2.47;;;1.77;;
15258;SDS011;34462;51.368;12.364;2022-09-09T06:21:33;2.25;;;1.50;;
15258;SDS011;34462;51.368;12.364;2022-09-09T06:24:04;3.95;;;1.50;;
15258;SDS011;34462;51.368;12.364;2022-09-09T06:26:34;3.17;;;1.80;;
15258;SDS011;34462;51.368;12.364;2022-09-09T06:29:08;3.25;;;1.83;;
15258;SDS011;34462;51.368;12.364;2022-09-09T06:31:37;3.05;;;1.70;;
15258;SDS011;34462;51.368;12.364;2022-09-09T06:34:06;1.70;;;1.60;;
15258;SDS011;34462;51.368;12.364;2022-09-09T06:36:36;1.65;;;1.55;;
15258;SDS011;34462;51.368;12.364;2022-09-09T06:39:06;1.80;;;1.30;;
15258;SDS011;34462;51.368;12.364;2022-09-09T06:41:40;2.20;;;1.52;;
15258;SDS011;34462;51.368;12.364;2022-09-09T06:44:10;2.10;;;1.27;;
15258;SDS011;34462;51.368;12.364;2022-09-09T06:46:38;2.42;;;1.45;;
15258;SDS011;34462;51.368;12.364;2022-09-09T06:49:07;1.60;;;1.30;;
15258;SDS011;34462;51.368;12.364;2022-09-09T06:51:37;5.45;;;1.67;;
15258;SDS011;34462;51.368;12.364;2022-09-09T06:54:10;2.58;;;1.30;;
15258;SDS011;34462;51.368;12.364;2022-09-09T06:56:40;2.13;;;1.60;;
15258;SDS011;34462;51.368;12.364;2022-09-09T06:59:11;1.25;;;1.10;;
15258;SDS011;34462;51.368;12.364;2022-09-09T07:01:41;1.95;;;1.33;;
15258;SDS011;34462;51.368;12.364;2022-09-09T07:04:10;3.03;;;1.50;;
15258;SDS011;34462;51.368;12.364;2022-09-09T07:06:40;3.13;;;1.80;;
15258;SDS011;34462;51.368;12.364;2022-09-09T07:09:12;3.65;;;1.70;;
15258;SDS011;34462;51.368;12.364;2022-09-09T07:11:42;1.98;;;1.30;;
15258;SDS011;34462;51.368;12.364;2022-09-09T07:14:13;2.20;;;1.58;;
15258;SDS011;34462;51.368;12.364;2022-09-09T07:16:43;2.88;;;1.60;;
15258;SDS011;34462;51.368;12.364;2022-09-09T07:19:13;4.25;;;1.65;;
15258;SDS011;34462;51.368;12.364;2022-09-09T07:21:42;2.80;;;1.30;;
15258;SDS011;34462;51.368;12.364;2022-09-09T07:24:10;3.03;;;1.48;;
15258;SDS011;34462;51.368;12.364;2022-09-09T07:26:39;3.45;;;1.20;;
15258;SDS011;34462;51.368;12.364;2022-09-09T07:29:08;2.72;;;1.40;;
15258;SDS011;34462;51.368;12.364;2022-09-09T07:31:47;3.35;;;1.48;;
15258;SDS011;34462;51.368;12.364;2022-09-09T07:34:15;1.67;;;1.40;;
15258;SDS011;34462;51.368;12.364;2022-09-09T07:36:43;1.95;;;1.50;;
15258;SDS011;34462;51.368;12.364;2022-09-09T07:39:12;1.50;;;1.35;;
15258;SDS011;34462;51.368;12.364;2022-09-09T07:41:44;2.90;;;1.40;;
15258;SDS011;34462;51.368;12.364;2022-09-09T07:44:14;1.88;;;1.27;;
15258;SDS011;34462;51.368;12.364;2022-09-09T07:46:48;2.33;;;1.30;;
15258;SDS011;34462;51.368;12.364;2022-09-09T07:49:17;2.78;;;1.40;;
15258;SDS011;34462;51.368;12.364;2022-09-09T07:51:53;4.45;;;1.33;;
15258;SDS011;34462;51.368;12.364;2022-09-09T07:54:21;6.10;;;1.50;;
15258;SDS011;34462;51.368;12.364;2022-09-09T07:56:50;2.85;;;1.30;;
15258;SDS011;34462;51.368;12.364;2022-09-09T07:59:19;2.33;;;1.40;;
15258;SDS011;34462;51.368;12.364;2022-09-09T08:01:49;4.25;;;1.58;;
15258;SDS011;34462;51.368;12.364;2022-09-09T08:04:20;2.08;;;1.40;;
15258;SDS011;34462;51.368;12.364;2022-09-09T08:06:51;3.00;;;1.73;;
15258;SDS011;34462;51.368;12.364;2022-09-09T08:09:23;1.80;;;1.30;;
15258;SDS011;34462;51.368;12.364;2022-09-09T08:11:55;2.00;;;1.15;;
15258;SDS011;34462;51.368;12.364;2022-09-09T08:14:24;2.40;;;1.27;;
15258;SDS011;34462;51.368;12.364;2022-09-09T08:16:54;3.75;;;1.95;;
15258;SDS011;34462;51.368;12.364;2022-09-09T08:19:23;1.83;;;1.15;;
15258;SDS011;34462;51.368;12.364;2022-09-09T08:21:51;3.38;;;1.33;;
15258;SDS011;34462;51.368;12.364;2022-09-09T08:24:20;3.22;;;1.15;;
15258;SDS011;34462;51.368;12.364;2022-09-09T08:26:49;1.90;;;1.30;;
15258;SDS011;34462;51.368;12.364;2022-09-09T08:29:17;3.97;;;1.20;;
15258;SDS011;34462;51.368;12.364;2022-09-09T08:31:46;2.55;;;1.50;;
15258;SDS011;34462;51.368;12.364;2022-09-09T08:34:18;3.00;;;1.30;;
15258;SDS011;34462;51.368;12.364;2022-09-09T08:36:47;3.40;;;1.30;;
15258;SDS011;34462;51.368;12.364;2022-09-09T08:39:18;2.75;;;1.40;;
15258;SDS011;34462;51.368;12.364;2022-09-09T08:41:55;1.58;;;1.00;;
15258;SDS011;34462;51.368;12.364;2022-09-09T08:44:47;3.45;;;1.20;;
15258;SDS011;34462;51.368;12.364;2022-09-09T08:47:31;2.92;;;1.38;;
15258;SDS011;34462;51.368;12.364;2022-09-09T08:50:16;2.65;;;1.30;;
15258;SDS011;34462;51.368;12.364;2022-09-09T08:52:54;5.00;;;1.40;;
15258;SDS011;34462;51.368;12.364;2022-09-09T08:55:35;4.68;;;1.58;;
15258;SDS011;34462;51.368;12.364;2022-09-09T08:58:11;4.05;;;1.45;;
15258;SDS011;34462;51.368;12.364;2022-09-09T09:00:52;4.43;;;1.50;;
15258;SDS011;34462;51.368;12.364;2022-09-09T09:03:41;3.30;;;1.27;;
15258;SDS011;34462;51.368;12.364;2022-09-09T09:06:22;2.28;;;1.27;;
15258;SDS011;34462;51.368;12.364;2022-09-09T09:09:08;1.55;;;1.20;;
15258;SDS011;34462;51.368;12.364;2022-09-09T09:11:49;1.95;;;1.20;;
15258;SDS011;34462;51.368;12.364;2022-09-09T09:14:23;2.10;;;1.23;;
15258;SDS011;34462;51.368;12.364;2022-09-09T09:16:57;2.15;;;1.20;;
15258;SDS011;34462;51.368;12.364;2022-09-09T09:19:29;5.85;;;1.25;;
15258;SDS011;34462;51.368;12.364;2022-09-09T09:22:04;2.28;;;1.20;;
15258;SDS011;34462;51.368;12.364;2022-09-09T09:24:45;6.93;;;1.40;;
15258;SDS011;34462;51.368;12.364;2022-09-09T09:27:23;4.13;;;1.58;;
15258;SDS011;34462;51.368;12.364;2022-09-09T09:30:10;2.40;;;1.20;;
15258;SDS011;34462;51.368;12.364;2022-09-09T09:32:54;4.85;;;1.40;;
15258;SDS011;34462;51.368;12.364;2022-09-09T09:35:28;12.40;;;2.58;;
15258;SDS011;34462;51.368;12.364;2022-09-09T09:37:57;7.82;;;1.88;;
15258;SDS011;34462;51.368;12.364;2022-09-09T09:40:48;2.72;;;1.27;;
15258;SDS011;34462;51.368;12.364;2022-09-09T09:43:24;6.07;;;1.67;;
15258;SDS011;34462;51.368;12.364;2022-09-09T09:45:55;5.72;;;1.25;;
15258;SDS011;34462;51.368;12.364;2022-09-09T09:48:42;3.42;;;1.10;;
15258;SDS011;34462;51.368;12.364;2022-09-09T09:51:13;3.95;;;1.40;;
15258;SDS011;34462;51.368;12.364;2022-09-09T09:53:46;6.13;;;1.55;;
15258;SDS011;34462;51.368;12.364;2022-09-09T09:56:15;7.10;;;1.88;;
15258;SDS011;34462;51.368;12.364;2022-09-09T09:58:48;4.80;;;1.40;;
15258;SDS011;34462;51.368;12.364;2022-09-09T10:01:20;4.65;;;1.10;;
15258;SDS011;34462;51.368;12.364;2022-09-09T10:03:52;4.13;;;1.35;;
15258;SDS011;34462;51.368;12.364;2022-09-09T10:06:31;4.55;;;1.40;;
15258;SDS011;34462;51.368;12.364;2022-09-09T10:09:02;5.55;;;1.58;;
15258;SDS011;34462;51.368;12.364;2022-09-09T10:11:49;4.72;;;1.77;;
15258;SDS011;34462;51.368;12.364;2022-09-09T10:14:28;3.28;;;1.30;;
15258;SDS011;34462;51.368;12.364;2022-09-09T10:17:09;12.75;;;2.50;;
15258;SDS011;34462;51.368;12.364;2022-09-09T10:19:56;4.00;;;1.25;;
15258;SDS011;34462;51.368;12.364;2022-09-09T10:22:50;2.83;;;1.42;;
15258;SDS011;34462;51.368;12.364;2022-09-09T10:25:36;3.33;;;1.10;;
15258;SDS011;34462;51.368;12.364;2022-09-09T10:28:29;3.38;;;1.48;;
15258;SDS011;34462;51.368;12.364;2022-09-09T10:31:22;3.38;;;1.90;;
15258;SDS011;34462;51.368;12.364;2022-09-09T10:34:06;3.70;;;1.70;;
15258;SDS011;34462;51.368;12.364;2022-09-09T10:37:06;2.22;;;1.40;;
15258;SDS011;34462;51.368;12.364;2022-09-09T10:39:55;2.75;;;1.40;;
15258;SDS011;34462;51.368;12.364;2022-09-09T10:42:44;2.83;;;1.30;;
15258;SDS011;34462;51.368;12.364;2022-09-09T10:45:15;3.20;;;1.58;;
15258;SDS011;34462;51.368;12.364;2022-09-09T10:47:56;2.67;;;1.33;;
15258;SDS011;34462;51.368;12.364;2022-09-09T10:50:50;4.85;;;1.60;;
15258;SDS011;34462;51.368;12.364;2022-09-09T10:53:34;5.13;;;1.65;;
15258;SDS011;34462;51.368;12.364;2022-09-09T10:56:12;3.33;;;1.40;;
15258;SDS011;34462;51.368;12.364;2022-09-09T10:58:48;3.63;;;1.40;;
15258;SDS011;34462;51.368;12.364;2022-09-09T11:01:24;8.60;;;2.38;;
15258;SDS011;34462;51.368;12.364;2022-09-09T11:04:00;7.25;;;3.00;;
15258;SDS011;34462;51.368;12.364;2022-09-09T11:06:39;2.58;;;1.40;;
15258;SDS011;34462;51.368;12.364;2022-09-09T11:09:15;3.20;;;1.25;;
15258;SDS011;34462;51.368;12.364;2022-09-09T11:11:49;3.72;;;1.27;;
15258;SDS011;34462;51.368;12.364;2022-09-09T11:14:25;1.90;;;1.30;;
15258;SDS011;34462;51.368;12.364;2022-09-09T11:17:03;2.78;;;1.15;;
15258;SDS011;34462;51.368;12.364;2022-09-09T11:19:38;1.85;;;1.08;;
15258;SDS011;34462;51.368;12.364;2022-09-09T11:22:14;2.65;;;1.30;;
15258;SDS011;34462;51.368;12.364;2022-09-09T11:24:52;2.70;;;1.30;;
15258;SDS011;34462;51.368;12.364;2022-09-09T11:27:28;2.35;;;1.17;;
15258;SDS011;34462;51.368;12.364;2022-09-09T11:33:27;2.92;;;1.30;;
15258;SDS011;34462;51.368;12.364;2022-09-09T11:36:32;1.95;;;1.10;;
15258;SDS011;34462;51.368;12.364;2022-09-09T11:39:21;2.72;;;1.08;;
15258;SDS011;34462;51.368;12.364;2022-09-09T11:42:16;4.50;;;1.40;;
15258;SDS011;34462;51.368;12.364;2022-09-09T11:44:47;1.45;;;1.15;;
15258;SDS011;34462;51.368;12.364;2022-09-09T11:47:19;2.45;;;1.13;;
15258;SDS011;34462;51.368;12.364;2022-09-09T11:49:55;2.90;;;1.20;;
15258;SDS011;34462;51.368;12.364;2022-09-09T11:53:03;3.22;;;1.35;;
15258;SDS011;34462;51.368;12.364;2022-09-09T11:55:59;1.42;;;1.02;;
15258;SDS011;34462;51.368;12.364;2022-09-09T11:58:38;1.20;;;1.05;;
15258;SDS011;34462;51.368;12.364;2022-09-09T12:01:34;3.80;;;1.58;;
15258;SDS011;34462;51.368;12.364;2022-09-09T12:07:21;2.58;;;1.27;;
15258;SDS011;34462;51.368;12.364;2022-09-09T12:09:59;2.22;;;1.25;;
15258;SDS011;34462;51.368;12.364;2022-09-09T12:12:34;4.15;;;1.30;;
15258;SDS011;34462;51.368;12.364;2022-09-09T12:15:23;3.10;;;1.27;;
15258;SDS011;34462;51.368;12.364;2022-09-09T12:17:55;2.15;;;1.05;;
15258;SDS011;34462;51.368;12.364;2022-09-09T12:20:32;3.38;;;1.15;;
15258;SDS011;34462;51.368;12.364;2022-09-09T12:26:21;3.83;;;1.27;;
15258;SDS011;34462;51.368;12.364;2022-09-09T12:29:11;2.53;;;1.17;;
15258;SDS011;34462;51.368;12.364;2022-09-09T12:31:53;6.18;;;1.50;;
15258;SDS011;34462;51.368;12.364;2022-09-09T12:34:33;2.63;;;1.30;;
15258;SDS011;34462;51.368;12.364;2022-09-09T12:37:13;1.67;;;1.05;;
15258;SDS011;34462;51.368;12.364;2022-09-09T12:39:49;3.03;;;1.20;;
15258;SDS011;34462;51.368;12.364;2022-09-09T12:42:23;3.13;;;1.30;;
15258;SDS011;34462;51.368;12.364;2022-09-09T12:44:53;3.53;;;1.30;;
15258;SDS011;34462;51.368;12.364;2022-09-09T12:47:25;2.22;;;1.15;;
15258;SDS011;34462;51.368;12.364;2022-09-09T12:50:15;2.28;;;1.20;;
15258;SDS011;34462;51.368;12.364;2022-09-09T12:52:49;3.40;;;1.10;;
15258;SDS011;34462;51.368;12.364;2022-09-09T12:55:23;2.63;;;1.08;;
15258;SDS011;34462;51.368;12.364;2022-09-09T12:57:56;1.15;;;0.98;;
15258;SDS011;34462;51.368;12.364;2022-09-09T13:00:26;2.63;;;1.00;;
15258;SDS011;34462;51.368;12.364;2022-09-09T13:02:57;1.48;;;0.88;;
15258;SDS011;34462;51.368;12.364;2022-09-09T13:05:28;1.45;;;1.08;;
15258;SDS011;34462;51.368;12.364;2022-09-09T13:08:05;3.88;;;1.10;;
15258;SDS011;34462;51.368;12.364;2022-09-09T13:10:40;2.85;;;0.95;;
15258;SDS011;34462;51.368;12.364;2022-09-09T13:13:21;3.10;;;1.05;;
15258;SDS011;34462;51.368;12.364;2022-09-09T13:15:56;2.35;;;0.82;;
15258;SDS011;34462;51.368;12.364;2022-09-09T13:18:27;2.35;;;1.10;;
15258;SDS011;34462;51.368;12.364;2022-09-09T13:20:59;2.33;;;0.93;;
15258;SDS011;34462;51.368;12.364;2022-09-09T13:23:30;2.20;;;0.90;;
15258;SDS011;34462;51.368;12.364;2022-09-09T13:26:01;1.05;;;0.95;;
15258;SDS011;34462;51.368;12.364;2022-09-09T13:28:33;1.83;;;1.00;;
15258;SDS011;34462;51.368;12.364;2022-09-09T13:31:02;2.55;;;1.10;;
15258;SDS011;34462;51.368;12.364;2022-09-09T13:33:34;2.75;;;0.77;;
15258;SDS011;34462;51.368;12.364;2022-09-09T13:36:05;1.50;;;1.10;;
15258;SDS011;34462;51.368;12.364;2022-09-09T13:38:37;3.53;;;1.30;;
15258;SDS011;34462;51.368;12.364;2022-09-09T13:41:20;2.03;;;1.05;;
15258;SDS011;34462;51.368;12.364;2022-09-09T13:43:50;2.25;;;0.80;;
15258;SDS011;34462;51.368;12.364;2022-09-09T13:46:24;2.83;;;1.10;;
15258;SDS011;34462;51.368;12.364;2022-09-09T13:48:58;2.22;;;1.00;;
15258;SDS011;34462;51.368;12.364;2022-09-09T13:51:30;1.65;;;1.10;;
15258;SDS011;34462;51.368;12.364;2022-09-09T13:54:05;1.98;;;0.93;;
15258;SDS011;34462;51.368;12.364;2022-09-09T13:56:37;2.15;;;1.10;;
15258;SDS011;34462;51.368;12.364;2022-09-09T13:59:09;4.80;;;1.20;;
15258;SDS011;34462;51.368;12.364;2022-09-09T14:01:41;5.13;;;1.20;;
15258;SDS011;34462;51.368;12.364;2022-09-09T14:04:10;3.55;;;1.00;;
15258;SDS011;34462;51.368;12.364;2022-09-09T14:06:38;3.40;;;1.25;;
15258;SDS011;34462;51.368;12.364;2022-09-09T14:09:10;1.80;;;1.13;;
15258;SDS011;34462;51.368;12.364;2022-09-09T14:11:42;2.67;;;1.08;;
15258;SDS011;34462;51.368;12.364;2022-09-09T14:14:11;1.35;;;0.70;;
15258;SDS011;34462;51.368;12.364;2022-09-09T14:16:39;5.57;;;0.80;;
15258;SDS011;34462;51.368;12.364;2022-09-09T14:19:08;2.13;;;0.77;;
15258;SDS011;34462;51.368;12.364;2022-09-09T14:21:36;1.58;;;0.70;;
15258;SDS011;34462;51.368;12.364;2022-09-09T14:24:04;1.67;;;0.60;;
15258;SDS011;34462;51.368;12.364;2022-09-09T14:26:34;1.13;;;0.60;;
15258;SDS011;34462;51.368;12.364;2022-09-09T14:29:03;2.45;;;0.93;;
15258;SDS011;34462;51.368;12.364;2022-09-09T14:31:31;1.92;;;0.85;;
15258;SDS011;34462;51.368;12.364;2022-09-09T14:33:59;1.98;;;0.60;;
15258;SDS011;34462;51.368;12.364;2022-09-09T14:36:27;1.48;;;0.63;;
15258;SDS011;34462;51.368;12.364;2022-09-09T14:38:55;1.70;;;0.80;;
15258;SDS011;34462;51.368;12.364;2022-09-09T14:41:23;2.33;;;0.95;;
15258;SDS011;34462;51.368;12.364;2022-09-09T14:43:53;2.75;;;0.80;;
15258;SDS011;34462;51.368;12.364;2022-09-09T14:46:21;2.03;;;0.80;;
15258;SDS011;34462;51.368;12.364;2022-09-09T14:48:50;1.30;;;0.80;;
15258;SDS011;34462;51.368;12.364;2022-09-09T14:51:20;3.22;;;0.80;;
15258;SDS011;34462;51.368;12.364;2022-09-09T14:53:51;1.17;;;0.80;;
15258;SDS011;34462;51.368;12.364;2022-09-09T14:56:21;2.45;;;1.02;;
15258;SDS011;34462;51.368;12.364;2022-09-09T14:58:54;3.22;;;1.02;;
15258;SDS011;34462;51.368;12.364;2022-09-09T15:01:24;1.77;;;1.00;;
15258;SDS011;34462;51.368;12.364;2022-09-09T15:03:54;2.40;;;0.77;;
15258;SDS011;34462;51.368;12.364;2022-09-09T15:06:25;1.70;;;0.90;;
15258;SDS011;34462;51.368;12.364;2022-09-09T15:08:56;2.97;;;0.98;;
15258;SDS011;34462;51.368;12.364;2022-09-09T15:11:25;1.75;;;0.77;;
15258;SDS011;34462;51.368;12.364;2022-09-09T15:13:57;1.67;;;1.00;;
15258;SDS011;34462;51.368;12.364;2022-09-09T15:16:26;1.70;;;1.00;;
15258;SDS011;34462;51.368;12.364;2022-09-09T15:18:56;2.80;;;1.02;;
15258;SDS011;34462;51.368;12.364;2022-09-09T15:21:26;2.88;;;1.10;;